Terminal Aerodrome Forecast
Issued by NWS

Home | Current Version | Previous Version | Text Only | Print | Product List | Glossary On
Versions: 1 2 3 4 5 6 7 8 9 10 11 12 13 14 15 16 17 18 19 20 21 22 23 24 25 26 27 28 29 30 31 32 33
000
FTUS45 KGJT 031735
TAFMTJ
TAF
KMTJ 031735Z 0318/0418 13008KT P6SM VCSH SCT060 OVC090
      TEMPO 0318/0322 VRB15G30KT -TSRA BKN060CB
     FM032200 28008KT P6SM VCTS SCT060CB BKN100
     FM040200 15006KT P6SM SCT080 BKN150
     FM040600 14006KT P6SM BKN150
     FM041700 32006KT P6SM VCSH SCT060 BKN120=

USA.gov is the U.S. government's official web portal to all federal, state and local government web resources and services.